sensor_id;sensor_type;location;lat;lon;timestamp;pressure;altitude;pressure_sealevel;temperature;humidity
56334;BME280;42240;53.626;55.886;2023-12-22T00:02:14;76718.94;;;-145.10;100.00
56334;BME280;42240;53.626;55.886;2023-12-22T00:06:21;76685.34;;;-145.10;100.00
56334;BME280;42240;53.626;55.886;2023-12-22T00:07:55;76689.28;;;-145.10;100.00
56334;BME280;42240;53.626;55.886;2023-12-22T00:09:28;76667.53;;;-145.10;100.00
56334;BME280;42240;53.626;55.886;2023-12-22T00:11:01;76695.22;;;-145.10;100.00
56334;BME280;42240;53.626;55.886;2023-12-22T00:12:36;76683.34;;;-145.10;100.00
56334;BME280;42240;53.626;55.886;2023-12-22T00:14:11;76667.53;;;-145.10;100.00
56334;BME280;42240;53.626;55.886;2023-12-22T00:15:50;76687.31;;;-145.10;100.00
56334;BME280;42240;53.626;55.886;2023-12-22T00:17:23;76720.94;;;-145.10;100.00
56334;BME280;42240;53.626;55.886;2023-12-22T00:18:57;76671.50;;;-145.10;100.00
56334;BME280;42240;53.626;55.886;2023-12-22T00:20:33;76691.25;;;-145.10;100.00
56334;BME280;42240;53.626;55.886;2023-12-22T00:22:10;76716.97;;;-145.10;100.00
56334;BME280;42240;53.626;55.886;2023-12-22T00:23:44;76715.00;;;-145.10;100.00
56334;BME280;42240;53.626;55.886;2023-12-22T00:25:18;76711.03;;;-145.10;100.00
56334;BME280;42240;53.626;55.886;2023-12-22T00:26:52;76707.09;;;-145.10;100.00
56334;BME280;42240;53.626;55.886;2023-12-22T00:28:26;76679.41;;;-145.10;100.00
56334;BME280;42240;53.626;55.886;2023-12-22T00:30:00;76711.03;;;-145.10;100.00
56334;BME280;42240;53.626;55.886;2023-12-22T00:31:34;76671.50;;;-145.10;100.00
56334;BME280;42240;53.626;55.886;2023-12-22T00:33:08;76643.81;;;-145.10;100.00
56334;BME280;42240;53.626;55.886;2023-12-22T00:34:41;76675.44;;;-145.10;100.00
56334;BME280;42240;53.626;55.886;2023-12-22T00:36:17;76715.00;;;-145.10;100.00
56334;BME280;42240;53.626;55.886;2023-12-22T00:37:51;76707.09;;;-145.10;100.00
56334;BME280;42240;53.626;55.886;2023-12-22T00:39:25;76685.34;;;-145.10;100.00
56334;BME280;42240;53.626;55.886;2023-12-22T00:40:58;76718.94;;;-145.10;100.00
56334;BME280;42240;53.626;55.886;2023-12-22T00:42:35;76726.84;;;-145.10;100.00
56334;BME280;42240;53.626;55.886;2023-12-22T00:44:07;76695.22;;;-145.10;100.00
56334;BME280;42240;53.626;55.886;2023-12-22T00:45:46;76716.97;;;-145.10;100.00
56334;BME280;42240;53.626;55.886;2023-12-22T00:47:20;76722.91;;;-145.10;100.00
56334;BME280;42240;53.626;55.886;2023-12-22T00:48:54;76718.94;;;-145.10;100.00
56334;BME280;42240;53.626;55.886;2023-12-22T00:50:27;76707.09;;;-145.10;100.00
56334;BME280;42240;53.626;55.886;2023-12-22T00:52:06;76699.19;;;-145.10;100.00
56334;BME280;42240;53.626;55.886;2023-12-22T00:53:40;76707.09;;;-145.10;100.00
56334;BME280;42240;53.626;55.886;2023-12-22T00:55:14;76663.59;;;-145.10;100.00
56334;BME280;42240;53.626;55.886;2023-12-22T00:56:47;76699.19;;;-145.10;100.00
56334;BME280;42240;53.626;55.886;2023-12-22T00:58:21;76705.09;;;-145.10;100.00
56334;BME280;42240;53.626;55.886;2023-12-22T00:59:54;76722.91;;;-145.10;100.00
56334;BME280;42240;53.626;55.886;2023-12-22T01:01:28;76687.31;;;-145.10;100.00
56334;BME280;42240;53.626;55.886;2023-12-22T01:03:02;76715.00;;;-145.10;100.00
56334;BME280;42240;53.626;55.886;2023-12-22T01:04:35;76699.19;;;-145.10;100.00
56334;BME280;42240;53.626;55.886;2023-12-22T01:06:09;76679.41;;;-145.10;100.00
56334;BME280;42240;53.626;55.886;2023-12-22T01:07:43;76715.00;;;-145.10;100.00
56334;BME280;42240;53.626;55.886;2023-12-22T01:09:17;76683.34;;;-145.10;100.00
56334;BME280;42240;53.626;55.886;2023-12-22T01:10:54;76734.78;;;-145.10;100.00
56334;BME280;42240;53.626;55.886;2023-12-22T01:12:28;76734.78;;;-145.10;100.00
56334;BME280;42240;53.626;55.886;2023-12-22T01:14:02;76738.72;;;-145.10;100.00
56334;BME280;42240;53.626;55.886;2023-12-22T01:15:35;76709.06;;;-145.10;100.00
56334;BME280;42240;53.626;55.886;2023-12-22T01:17:08;76730.81;;;-145.10;100.00
56334;BME280;42240;53.626;55.886;2023-12-22T01:18:42;76707.09;;;-145.10;100.00
56334;BME280;42240;53.626;55.886;2023-12-22T01:20:17;76734.78;;;-145.10;100.00
56334;BME280;42240;53.626;55.886;2023-12-22T01:21:52;76711.03;;;-145.10;100.00
56334;BME280;42240;53.626;55.886;2023-12-22T01:23:25;76715.00;;;-145.10;100.00
56334;BME280;42240;53.626;55.886;2023-12-22T01:24:59;76720.94;;;-145.10;100.00
56334;BME280;42240;53.626;55.886;2023-12-22T01:26:34;76718.94;;;-145.10;100.00
56334;BME280;42240;53.626;55.886;2023-12-22T01:28:07;76730.81;;;-145.10;100.00
56334;BME280;42240;53.626;55.886;2023-12-22T01:29:41;76718.94;;;-145.10;100.00
56334;BME280;42240;53.626;55.886;2023-12-22T01:31:15;76695.22;;;-145.10;100.00
56334;BME280;42240;53.626;55.886;2023-12-22T01:32:50;76699.19;;;-145.10;100.00
56334;BME280;42240;53.626;55.886;2023-12-22T01:34:27;76695.22;;;-145.10;100.00
56334;BME280;42240;53.626;55.886;2023-12-22T01:36:00;76703.13;;;-145.10;100.00
56334;BME280;42240;53.626;55.886;2023-12-22T01:37:34;76722.91;;;-145.10;100.00
56334;BME280;42240;53.626;55.886;2023-12-22T01:39:09;76726.84;;;-145.10;100.00
56334;BME280;42240;53.626;55.886;2023-12-22T01:40:42;76742.69;;;-145.10;100.00
56334;BME280;42240;53.626;55.886;2023-12-22T01:42:16;76709.06;;;-145.10;100.00
56334;BME280;42240;53.626;55.886;2023-12-22T01:43:49;76722.91;;;-145.10;100.00
56334;BME280;42240;53.626;55.886;2023-12-22T01:45:23;76718.94;;;-145.10;100.00
56334;BME280;42240;53.626;55.886;2023-12-22T01:46:59;76746.63;;;-145.10;100.00
56334;BME280;42240;53.626;55.886;2023-12-22T01:48:33;76722.91;;;-145.10;100.00
56334;BME280;42240;53.626;55.886;2023-12-22T01:50:07;76740.69;;;-145.10;100.00
56334;BME280;42240;53.626;55.886;2023-12-22T01:51:50;76726.84;;;-145.10;100.00
56334;BME280;42240;53.626;55.886;2023-12-22T01:53:25;76764.44;;;-145.10;100.00
56334;BME280;42240;53.626;55.886;2023-12-22T01:55:02;76697.19;;;-145.10;100.00
56334;BME280;42240;53.626;55.886;2023-12-22T01:56:38;76730.81;;;-145.10;100.00
56334;BME280;42240;53.626;55.886;2023-12-22T01:58:13;76718.94;;;-145.10;100.00
56334;BME280;42240;53.626;55.886;2023-12-22T01:59:49;76730.81;;;-145.10;100.00
56334;BME280;42240;53.626;55.886;2023-12-22T02:01:22;76724.88;;;-145.10;100.00
56334;BME280;42240;53.626;55.886;2023-12-22T02:02:56;76718.94;;;-145.10;100.00
56334;BME280;42240;53.626;55.886;2023-12-22T02:04:31;76750.59;;;-145.10;100.00
56334;BME280;42240;53.626;55.886;2023-12-22T02:06:05;76730.81;;;-145.10;100.00
56334;BME280;42240;53.626;55.886;2023-12-22T02:07:40;76736.75;;;-145.10;100.00
56334;BME280;42240;53.626;55.886;2023-12-22T02:09:14;76734.78;;;-145.10;100.00
56334;BME280;42240;53.626;55.886;2023-12-22T02:10:47;76760.47;;;-145.10;100.00
56334;BME280;42240;53.626;55.886;2023-12-22T02:12:24;76722.91;;;-145.10;100.00
56334;BME280;42240;53.626;55.886;2023-12-22T02:13:57;76746.63;;;-145.10;100.00
56334;BME280;42240;53.626;55.886;2023-12-22T02:15:31;76758.50;;;-145.10;100.00
56334;BME280;42240;53.626;55.886;2023-12-22T02:17:14;76774.31;;;-145.10;100.00
56334;BME280;42240;53.626;55.886;2023-12-22T02:18:49;76740.69;;;-145.10;100.00
56334;BME280;42240;53.626;55.886;2023-12-22T02:20:27;76711.03;;;-145.10;100.00
56334;BME280;42240;53.626;55.886;2023-12-22T02:22:01;76728.84;;;-145.10;100.00
56334;BME280;42240;53.626;55.886;2023-12-22T02:23:40;76726.84;;;-145.10;100.00
56334;BME280;42240;53.626;55.886;2023-12-22T02:25:13;76726.84;;;-145.10;100.00
56334;BME280;42240;53.626;55.886;2023-12-22T02:26:47;76736.75;;;-145.10;100.00
56334;BME280;42240;53.626;55.886;2023-12-22T02:28:21;76782.22;;;-145.10;100.00
56334;BME280;42240;53.626;55.886;2023-12-22T02:30:11;76762.44;;;-145.10;100.00
56334;BME280;42240;53.626;55.886;2023-12-22T02:31:47;76722.91;;;-145.10;100.00
56334;BME280;42240;53.626;55.886;2023-12-22T02:33:25;76736.75;;;-145.10;100.00
56334;BME280;42240;53.626;55.886;2023-12-22T02:35:03;76790.13;;;-145.10;100.00
56334;BME280;42240;53.626;55.886;2023-12-22T02:36:38;76756.53;;;-145.10;100.00
56334;BME280;42240;53.626;55.886;2023-12-22T02:38:12;76768.38;;;-145.10;100.00
56334;BME280;42240;53.626;55.886;2023-12-22T02:39:47;76738.72;;;-145.10;100.00
56334;BME280;42240;53.626;55.886;2023-12-22T02:41:21;76746.63;;;-145.10;100.00
56334;BME280;42240;53.626;55.886;2023-12-22T02:42:55;76774.31;;;-145.10;100.00
56334;BME280;42240;53.626;55.886;2023-12-22T02:44:28;76766.41;;;-145.10;100.00
56334;BME280;42240;53.626;55.886;2023-12-22T02:46:02;76770.38;;;-145.10;100.00
56334;BME280;42240;53.626;55.886;2023-12-22T02:47:36;76790.13;;;-145.10;100.00
56334;BME280;42240;53.626;55.886;2023-12-22T02:49:10;76776.28;;;-145.10;100.00
56334;BME280;42240;53.626;55.886;2023-12-22T02:50:43;76800.03;;;-145.10;100.00
56334;BME280;42240;53.626;55.886;2023-12-22T02:52:17;76784.22;;;-145.10;100.00
56334;BME280;42240;53.626;55.886;2023-12-22T02:53:51;76786.19;;;-145.10;100.00
56334;BME280;42240;53.626;55.886;2023-12-22T02:55:25;76802.00;;;-145.10;100.00
56334;BME280;42240;53.626;55.886;2023-12-22T02:56:58;76788.16;;;-145.10;100.00
56334;BME280;42240;53.626;55.886;2023-12-22T02:58:33;76780.25;;;-145.10;100.00
56334;BME280;42240;53.626;55.886;2023-12-22T03:00:07;76796.06;;;-145.10;100.00
56334;BME280;42240;53.626;55.886;2023-12-22T03:01:40;76766.41;;;-145.10;100.00
56334;BME280;42240;53.626;55.886;2023-12-22T03:03:14;76786.19;;;-145.10;100.00
56334;BME280;42240;53.626;55.886;2023-12-22T03:04:51;76778.28;;;-145.10;100.00
56334;BME280;42240;53.626;55.886;2023-12-22T03:06:28;76786.19;;;-145.10;100.00
56334;BME280;42240;53.626;55.886;2023-12-22T03:08:03;76780.25;;;-145.10;100.00
56334;BME280;42240;53.626;55.886;2023-12-22T03:09:36;76796.06;;;-145.10;100.00
56334;BME280;42240;53.626;55.886;2023-12-22T03:11:10;76790.13;;;-145.10;100.00
56334;BME280;42240;53.626;55.886;2023-12-22T03:12:43;76754.53;;;-145.10;100.00
56334;BME280;42240;53.626;55.886;2023-12-22T03:14:16;76762.44;;;-145.10;100.00
56334;BME280;42240;53.626;55.886;2023-12-22T03:15:49;76786.19;;;-145.10;100.00
56334;BME280;42240;53.626;55.886;2023-12-22T03:17:21;76796.06;;;-145.10;100.00
56334;BME280;42240;53.626;55.886;2023-12-22T03:18:54;76762.44;;;-145.10;100.00
56334;BME280;42240;53.626;55.886;2023-12-22T03:20:27;76776.28;;;-145.10;100.00
56334;BME280;42240;53.626;55.886;2023-12-22T03:22:00;76817.81;;;-145.10;100.00
56334;BME280;42240;53.626;55.886;2023-12-22T03:23:33;76788.16;;;-145.10;100.00
56334;BME280;42240;53.626;55.886;2023-12-22T03:25:06;76786.19;;;-145.10;100.00
56334;BME280;42240;53.626;55.886;2023-12-22T03:26:39;76780.25;;;-145.10;100.00
56334;BME280;42240;53.626;55.886;2023-12-22T03:28:12;76768.38;;;-145.10;100.00
56334;BME280;42240;53.626;55.886;2023-12-22T03:29:45;76766.41;;;-145.10;100.00
56334;BME280;42240;53.626;55.886;2023-12-22T03:31:17;76778.28;;;-145.10;100.00
56334;BME280;42240;53.626;55.886;2023-12-22T03:32:50;76752.56;;;-145.10;100.00
56334;BME280;42240;53.626;55.886;2023-12-22T03:34:23;76788.16;;;-145.10;100.00
56334;BME280;42240;53.626;55.886;2023-12-22T03:35:56;76786.19;;;-145.10;100.00
56334;BME280;42240;53.626;55.886;2023-12-22T03:37:28;76803.97;;;-145.10;100.00
56334;BME280;42240;53.626;55.886;2023-12-22T03:39:01;76794.09;;;-145.10;100.00
56334;BME280;42240;53.626;55.886;2023-12-22T03:40:35;76815.84;;;-145.10;100.00
56334;BME280;42240;53.626;55.886;2023-12-22T03:42:08;76766.41;;;-145.10;100.00
56334;BME280;42240;53.626;55.886;2023-12-22T03:43:42;76774.31;;;-145.10;100.00
56334;BME280;42240;53.626;55.886;2023-12-22T03:45:14;76786.19;;;-145.10;100.00
56334;BME280;42240;53.626;55.886;2023-12-22T03:46:47;76766.41;;;-145.10;100.00
56334;BME280;42240;53.626;55.886;2023-12-22T03:48:19;76752.56;;;-145.10;100.00
56334;BME280;42240;53.626;55.886;2023-12-22T03:49:52;76800.03;;;-145.10;100.00
56334;BME280;42240;53.626;55.886;2023-12-22T03:51:25;76746.63;;;-145.10;100.00
56334;BME280;42240;53.626;55.886;2023-12-22T03:52:58;76772.34;;;-145.10;100.00
56334;BME280;42240;53.626;55.886;2023-12-22T03:54:31;76835.63;;;-145.10;100.00
56334;BME280;42240;53.626;55.886;2023-12-22T03:56:04;76788.16;;;-145.10;100.00
56334;BME280;42240;53.626;55.886;2023-12-22T03:57:37;76788.16;;;-145.10;100.00
56334;BME280;42240;53.626;55.886;2023-12-22T03:59:09;76802.00;;;-145.10;100.00
56334;BME280;42240;53.626;55.886;2023-12-22T04:00:42;76796.06;;;-145.10;100.00
56334;BME280;42240;53.626;55.886;2023-12-22T04:02:15;76782.22;;;-145.10;100.00
56334;BME280;42240;53.626;55.886;2023-12-22T04:03:48;76800.03;;;-145.10;100.00
56334;BME280;42240;53.626;55.886;2023-12-22T04:05:21;76786.19;;;-145.10;100.00
56334;BME280;42240;53.626;55.886;2023-12-22T04:06:54;76786.19;;;-145.10;100.00
56334;BME280;42240;53.626;55.886;2023-12-22T04:08:27;76792.13;;;-145.10;100.00
56334;BME280;42240;53.626;55.886;2023-12-22T04:10:00;76786.19;;;-145.10;100.00
56334;BME280;42240;53.626;55.886;2023-12-22T04:11:33;76788.16;;;-145.10;100.00
56334;BME280;42240;53.626;55.886;2023-12-22T04:13:12;76762.44;;;-145.10;100.00
56334;BME280;42240;53.626;55.886;2023-12-22T04:14:45;76746.63;;;-145.10;100.00
56334;BME280;42240;53.626;55.886;2023-12-22T04:16:20;76766.41;;;-145.10;100.00
56334;BME280;42240;53.626;55.886;2023-12-22T04:17:56;76774.31;;;-145.10;100.00
56334;BME280;42240;53.626;55.886;2023-12-22T04:19:29;76766.41;;;-145.10;100.00
56334;BME280;42240;53.626;55.886;2023-12-22T04:21:02;76780.25;;;-145.10;100.00
56334;BME280;42240;53.626;55.886;2023-12-22T04:22:36;76786.19;;;-145.10;100.00
56334;BME280;42240;53.626;55.886;2023-12-22T04:24:09;76778.28;;;-145.10;100.00
56334;BME280;42240;53.626;55.886;2023-12-22T04:25:43;76784.22;;;-145.10;100.00
56334;BME280;42240;53.626;55.886;2023-12-22T04:27:16;76762.44;;;-145.10;100.00
56334;BME280;42240;53.626;55.886;2023-12-22T04:28:49;76770.38;;;-145.10;100.00
56334;BME280;42240;53.626;55.886;2023-12-22T04:30:22;76760.47;;;-145.10;100.00
56334;BME280;42240;53.626;55.886;2023-12-22T04:31:54;76764.44;;;-145.10;100.00
56334;BME280;42240;53.626;55.886;2023-12-22T04:33:32;76827.72;;;-145.10;100.00
56334;BME280;42240;53.626;55.886;2023-12-22T04:35:05;76813.88;;;-145.10;100.00
56334;BME280;42240;53.626;55.886;2023-12-22T04:36:38;76807.94;;;-145.10;100.00
56334;BME280;42240;53.626;55.886;2023-12-22T04:38:11;76821.78;;;-145.10;100.00
56334;BME280;42240;53.626;55.886;2023-12-22T04:39:44;76833.66;;;-145.10;100.00
56334;BME280;42240;53.626;55.886;2023-12-22T04:41:17;76811.88;;;-145.10;100.00
56334;BME280;42240;53.626;55.886;2023-12-22T04:42:50;76807.94;;;-145.10;100.00
56334;BME280;42240;53.626;55.886;2023-12-22T04:44:23;76786.19;;;-145.10;100.00
56334;BME280;42240;53.626;55.886;2023-12-22T04:45:57;76782.22;;;-145.10;100.00
56334;BME280;42240;53.626;55.886;2023-12-22T04:47:30;76805.97;;;-145.10;100.00
56334;BME280;42240;53.626;55.886;2023-12-22T04:49:06;76794.09;;;-145.10;100.00
56334;BME280;42240;53.626;55.886;2023-12-22T04:50:40;76811.88;;;-145.10;100.00
56334;BME280;42240;53.626;55.886;2023-12-22T04:52:13;76807.94;;;-145.10;100.00
56334;BME280;42240;53.626;55.886;2023-12-22T04:53:47;76748.59;;;-145.10;100.00
56334;BME280;42240;53.626;55.886;2023-12-22T04:55:20;76802.00;;;-145.10;100.00
56334;BME280;42240;53.626;55.886;2023-12-22T04:56:55;76794.09;;;-145.10;100.00
56334;BME280;42240;53.626;55.886;2023-12-22T04:58:28;76805.97;;;-145.10;100.00
56334;BME280;42240;53.626;55.886;2023-12-22T05:00:01;76805.97;;;-145.10;100.00
56334;BME280;42240;53.626;55.886;2023-12-22T05:01:34;76800.03;;;-145.10;100.00
56334;BME280;42240;53.626;55.886;2023-12-22T05:03:08;76802.00;;;-145.10;100.00
56334;BME280;42240;53.626;55.886;2023-12-22T05:04:44;76758.50;;;-145.10;100.00
56334;BME280;42240;53.626;55.886;2023-12-22T05:06:18;76778.28;;;-145.10;100.00
56334;BME280;42240;53.626;55.886;2023-12-22T05:07:51;76849.47;;;-145.10;100.00
56334;BME280;42240;53.626;55.886;2023-12-22T05:09:24;76782.22;;;-145.10;100.00
56334;BME280;42240;53.626;55.886;2023-12-22T05:10:57;76768.38;;;-145.10;100.00
56334;BME280;42240;53.626;55.886;2023-12-22T05:12:30;76800.03;;;-145.10;100.00
56334;BME280;42240;53.626;55.886;2023-12-22T05:14:04;76750.59;;;-145.10;100.00
56334;BME280;42240;53.626;55.886;2023-12-22T05:15:37;76744.66;;;-145.10;100.00
56334;BME280;42240;53.626;55.886;2023-12-22T05:17:13;76762.44;;;-145.10;100.00
56334;BME280;42240;53.626;55.886;2023-12-22T05:18:46;76776.28;;;-145.10;100.00
56334;BME280;42240;53.626;55.886;2023-12-22T05:20:21;76746.63;;;-145.10;100.00
56334;BME280;42240;53.626;55.886;2023-12-22T05:21:54;76792.13;;;-145.10;100.00
56334;BME280;42240;53.626;55.886;2023-12-22T05:23:30;76768.38;;;-145.10;100.00
56334;BME280;42240;53.626;55.886;2023-12-22T05:25:03;76811.88;;;-145.10;100.00
56334;BME280;42240;53.626;55.886;2023-12-22T05:26:37;76813.88;;;-145.10;100.00
56334;BME280;42240;53.626;55.886;2023-12-22T05:28:10;76829.69;;;-145.10;100.00
56334;BME280;42240;53.626;55.886;2023-12-22T05:29:43;76851.44;;;-145.10;100.00
56334;BME280;42240;53.626;55.886;2023-12-22T05:31:16;76805.97;;;-145.10;100.00
56334;BME280;42240;53.626;55.886;2023-12-22T05:32:50;76825.72;;;-145.10;100.00
56334;BME280;42240;53.626;55.886;2023-12-22T05:34:23;76857.38;;;-145.10;100.00
56334;BME280;42240;53.626;55.886;2023-12-22T05:35:56;76835.63;;;-145.10;100.00
56334;BME280;42240;53.626;55.886;2023-12-22T05:37:29;76794.09;;;-145.10;100.00
56334;BME280;42240;53.626;55.886;2023-12-22T05:39:02;76762.44;;;-145.10;100.00
56334;BME280;42240;53.626;55.886;2023-12-22T05:40:35;76803.97;;;-145.10;100.00
56334;BME280;42240;53.626;55.886;2023-12-22T05:42:08;76819.81;;;-145.10;100.00
56334;BME280;42240;53.626;55.886;2023-12-22T05:43:41;76813.88;;;-145.10;100.00
56334;BME280;42240;53.626;55.886;2023-12-22T05:45:14;76784.22;;;-145.10;100.00
56334;BME280;42240;53.626;55.886;2023-12-22T05:46:47;76786.19;;;-145.10;100.00
56334;BME280;42240;53.626;55.886;2023-12-22T05:48:19;76770.38;;;-145.10;100.00
56334;BME280;42240;53.626;55.886;2023-12-22T05:49:54;76774.31;;;-145.10;100.00
56334;BME280;42240;53.626;55.886;2023-12-22T05:51:27;76802.00;;;-145.10;100.00
56334;BME280;42240;53.626;55.886;2023-12-22T05:53:00;76831.66;;;-145.10;100.00
56334;BME280;42240;53.626;55.886;2023-12-22T05:54:33;76807.94;;;-145.10;100.00
56334;BME280;42240;53.626;55.886;2023-12-22T05:56:18;76800.03;;;-145.10;100.00
56334;BME280;42240;53.626;55.886;2023-12-22T05:57:52;76790.13;;;-145.10;100.00
56334;BME280;42240;53.626;55.886;2023-12-22T05:59:26;76839.56;;;-145.10;100.00
56334;BME280;42240;53.626;55.886;2023-12-22T06:01:00;76825.72;;;-145.10;100.00
56334;BME280;42240;53.626;55.886;2023-12-22T06:02:33;76849.47;;;-145.10;100.00
56334;BME280;42240;53.626;55.886;2023-12-22T06:04:10;76796.06;;;-145.10;100.00
56334;BME280;42240;53.626;55.886;2023-12-22T06:05:43;76833.66;;;-145.10;100.00
56334;BME280;42240;53.626;55.886;2023-12-22T06:07:17;76809.91;;;-145.10;100.00
56334;BME280;42240;53.626;55.886;2023-12-22T06:08:52;76833.66;;;-145.10;100.00
56334;BME280;42240;53.626;55.886;2023-12-22T06:10:25;76811.88;;;-145.10;100.00
56334;BME280;42240;53.626;55.886;2023-12-22T06:11:59;76805.97;;;-145.10;100.00
56334;BME280;42240;53.626;55.886;2023-12-22T06:13:33;76809.91;;;-145.10;100.00
56334;BME280;42240;53.626;55.886;2023-12-22T06:15:13;76776.28;;;-145.10;100.00
56334;BME280;42240;53.626;55.886;2023-12-22T06:16:46;76784.22;;;-145.10;100.00
56334;BME280;42240;53.626;55.886;2023-12-22T06:18:20;76790.13;;;-145.10;100.00
56334;BME280;42240;53.626;55.886;2023-12-22T06:20:00;76837.59;;;-145.10;100.00
56334;BME280;42240;53.626;55.886;2023-12-22T06:21:36;76813.88;;;-145.10;100.00
56334;BME280;42240;53.626;55.886;2023-12-22T06:23:10;76811.88;;;-145.10;100.00
56334;BME280;42240;53.626;55.886;2023-12-22T06:24:43;76813.88;;;-145.10;100.00
56334;BME280;42240;53.626;55.886;2023-12-22T06:26:18;76817.81;;;-145.10;100.00
56334;BME280;42240;53.626;55.886;2023-12-22T06:27:51;76780.25;;;-145.10;100.00
56334;BME280;42240;53.626;55.886;2023-12-22T06:29:28;76744.66;;;-145.10;100.00
56334;BME280;42240;53.626;55.886;2023-12-22T06:31:08;76800.03;;;-145.10;100.00
56334;BME280;42240;53.626;55.886;2023-12-22T06:32:52;76772.34;;;-145.10;100.00
56334;BME280;42240;53.626;55.886;2023-12-22T06:34:28;76825.72;;;-145.10;100.00
56334;BME280;42240;53.626;55.886;2023-12-22T06:36:01;76790.13;;;-145.10;100.00
56334;BME280;42240;53.626;55.886;2023-12-22T06:37:37;76794.09;;;-145.10;100.00
56334;BME280;42240;53.626;55.886;2023-12-22T06:39:10;76839.56;;;-145.10;100.00
56334;BME280;42240;53.626;55.886;2023-12-22T06:40:43;76813.88;;;-145.10;100.00
56334;BME280;42240;53.626;55.886;2023-12-22T06:42:21;76809.91;;;-145.10;100.00
56334;BME280;42240;53.626;55.886;2023-12-22T06:43:55;76821.78;;;-145.10;100.00
56334;BME280;42240;53.626;55.886;2023-12-22T06:45:29;76809.91;;;-145.10;100.00
56334;BME280;42240;53.626;55.886;2023-12-22T06:47:02;76764.44;;;-145.10;100.00
56334;BME280;42240;53.626;55.886;2023-12-22T06:48:36;76796.06;;;-145.10;100.00
56334;BME280;42240;53.626;55.886;2023-12-22T06:50:10;76784.22;;;-145.10;100.00
56334;BME280;42240;53.626;55.886;2023-12-22T06:51:43;76764.44;;;-145.10;100.00
56334;BME280;42240;53.626;55.886;2023-12-22T06:53:16;76752.56;;;-145.10;100.00
56334;BME280;42240;53.626;55.886;2023-12-22T06:54:57;76772.34;;;-145.10;100.00
56334;BME280;42240;53.626;55.886;2023-12-22T06:56:32;76782.22;;;-145.10;100.00
56334;BME280;42240;53.626;55.886;2023-12-22T06:58:06;76754.53;;;-145.10;100.00
56334;BME280;42240;53.626;55.886;2023-12-22T06:59:39;76786.19;;;-145.10;100.00
56334;BME280;42240;53.626;55.886;2023-12-22T07:01:22;76774.31;;;-145.10;100.00
56334;BME280;42240;53.626;55.886;2023-12-22T07:02:59;76742.69;;;-145.10;100.00
56334;BME280;42240;53.626;55.886;2023-12-22T07:06:40;76762.44;;;-145.10;100.00
56334;BME280;42240;53.626;55.886;2023-12-22T07:08:14;76758.50;;;-145.10;100.00
56334;BME280;42240;53.626;55.886;2023-12-22T07:09:47;76750.59;;;-145.10;100.00
56334;BME280;42240;53.626;55.886;2023-12-22T07:11:20;76762.44;;;-145.10;100.00
56334;BME280;42240;53.626;55.886;2023-12-22T07:13:02;76746.63;;;-145.10;100.00
56334;BME280;42240;53.626;55.886;2023-12-22T07:14:39;76786.19;;;-145.10;100.00
56334;BME280;42240;53.626;55.886;2023-12-22T07:16:12;76762.44;;;-145.10;100.00
56334;BME280;42240;53.626;55.886;2023-12-22T07:17:46;76776.28;;;-145.10;100.00
56334;BME280;42240;53.626;55.886;2023-12-22T07:19:20;76740.69;;;-145.10;100.00
56334;BME280;42240;53.626;55.886;2023-12-22T07:20:53;76726.84;;;-145.10;100.00
56334;BME280;42240;53.626;55.886;2023-12-22T07:22:32;76724.88;;;-145.10;100.00
56334;BME280;42240;53.626;55.886;2023-12-22T07:24:06;76715.00;;;-145.10;100.00
56334;BME280;42240;53.626;55.886;2023-12-22T07:25:39;76715.00;;;-145.10;100.00
56334;BME280;42240;53.626;55.886;2023-12-22T07:27:11;76722.91;;;-145.10;100.00
56334;BME280;42240;53.626;55.886;2023-12-22T07:28:45;76726.84;;;-145.10;100.00
56334;BME280;42240;53.626;55.886;2023-12-22T07:30:25;76738.72;;;-145.10;100.00
56334;BME280;42240;53.626;55.886;2023-12-22T07:31:58;76675.44;;;-145.10;100.00
56334;BME280;42240;53.626;55.886;2023-12-22T07:33:32;76691.25;;;-145.10;100.00
56334;BME280;42240;53.626;55.886;2023-12-22T07:35:05;76655.66;;;-145.10;100.00
56334;BME280;42240;53.626;55.886;2023-12-22T07:36:40;76661.59;;;-145.10;100.00
56334;BME280;42240;53.626;55.886;2023-12-22T07:38:22;76726.84;;;-145.10;100.00
56334;BME280;42240;53.626;55.886;2023-12-22T07:39:56;76720.94;;;-145.10;100.00
56334;BME280;42240;53.626;55.886;2023-12-22T07:41:30;76687.31;;;-145.10;100.00
56334;BME280;42240;53.626;55.886;2023-12-22T07:43:03;76657.66;;;-145.10;100.00
56334;BME280;42240;53.626;55.886;2023-12-22T07:44:36;76610.19;;;-145.10;100.00
56334;BME280;42240;53.626;55.886;2023-12-22T07:46:16;76659.63;;;-145.10;100.00
56334;BME280;42240;53.626;55.886;2023-12-22T07:47:49;76671.50;;;-145.10;100.00
56334;BME280;42240;53.626;55.886;2023-12-22T07:49:26;76687.31;;;-145.10;100.00
56334;BME280;42240;53.626;55.886;2023-12-22T07:51:01;76663.59;;;-145.10;100.00
56334;BME280;42240;53.626;55.886;2023-12-22T07:52:35;76643.81;;;-145.10;100.00
56334;BME280;42240;53.626;55.886;2023-12-22T07:54:13;76649.75;;;-145.10;100.00
56334;BME280;42240;53.626;55.886;2023-12-22T07:55:46;76659.63;;;-145.10;100.00
56334;BME280;42240;53.626;55.886;2023-12-22T07:57:20;76626.00;;;-145.10;100.00
56334;BME280;42240;53.626;55.886;2023-12-22T07:58:53;76647.75;;;-145.10;100.00
56334;BME280;42240;53.626;55.886;2023-12-22T08:00:43;76631.94;;;-145.10;100.00